Flight Track Log - Related Links

Times and Time Zones

All times are in EDT time to prevent confusion due to time zone crossing. See the N465TP flight status page for this flight to view local times or setup timezone preferences in your user account.

Time Position Orientation Groundspeed Altitude Reporting Facility
EDT Latitude Longitude Course Direction KTS km/h feet Rate Location/Type
Mon 14:28:51 37.6333 -122.3500 50° Northeast 130 241 1.100  Level Northern Cal TRACON
Mon 14:29:51 37.6667 -122.3167 38° Northeast 124 230 2.700 1.388 Climbing Northern Cal TRACON
Mon 14:30:52 37.6833 -122.2833 58° Northeast 145 269 3.900 1.200 Climbing Northern Cal TRACON
Mon 14:31:46 37.7167 -122.2500 38° Northeast 154 285 5.000 1.211 Climbing Northern Cal TRACON
Mon 14:32:46 37.7333 -122.2000 67° East 162 299 6.200 1.200 Climbing Northern Cal TRACON
Mon 14:33:46 37.7667 -122.1500 50° Northeast 171 317 7.400 1.250 Climbing Northern Cal TRACON
Mon 14:34:00 37.6199 -122.3618 50° Northeast  Level FlightAware Approximate
Mon 14:34:46 37.8000 -122.1000 50° Northeast 180 333 8.700  Level Northern Cal TRACON
Mon 14:35:41 37.8167 -122.0500 67° East 184 341 9.700 1.043 Climbing Northern Cal TRACON
Mon 14:36:41 37.8500 -122.0000 50° Northeast 188 348 10.700 1.100 Climbing Northern Cal TRACON
Mon 14:37:41 37.8833 -121.9500 50° Northeast 194 359 11.900 1.107 Climbing Northern Cal TRACON
Mon 14:38:24 37.9075 -121.9042 56° Northeast 192 356 12.600 1.029 Climbing Oakland Center
Mon 14:39:26 37.9381 -121.8467 56° Northeast 196 364 13.700 1.065 Climbing Oakland Center
Mon 14:40:28 37.9750 -121.7944 48° Northeast 202 373 14.800 1.113 Climbing Oakland Center
Mon 14:41:30 38.0333 -121.7753 15° North 215 398 16.000 1.073 Climbing Oakland Center
Mon 14:42:31 38.0897 -121.7561 15° North 212 393 17.000 976 Climbing Oakland Center
Mon 14:43:33 38.1506 -121.7381 13° North 221 409 18.000 1.016 Climbing Oakland Center
Mon 14:44:35 38.2131 -121.7183 14° North 229 425 19.100 1.113 Climbing Oakland Center
Mon 14:45:37 38.2886 -121.6911 16° North 237 439 20.300 1.024 Climbing Oakland Center
Mon 14:46:38 38.3522 -121.6694 15° North 237 439 21.200 878 Climbing Oakland Center
Mon 14:47:40 38.4164 -121.6422 18° North 242 447 22.100 919 Climbing Oakland Center
Mon 14:48:42 38.4908 -121.6142 16° North 251 465 23.100 968 Climbing Oakland Center
Mon 14:49:44 38.5611 -121.5903 15° North 257 476 24.100 829 Climbing Oakland Center
Mon 14:50:45 38.6317 -121.5636 16° North 261 483 24.800 390 Climbing Oakland Center
Mon 14:51:47 38.7019 -121.5208 25° Northeast 291 539 24.900 242 Climbing Oakland Center
Mon 14:52:49 38.7397 -121.4275 63° Northeast 293 542 25.300 774 Climbing Oakland Center
Mon 14:53:51 38.7756 -121.3439 61° Northeast 268 496 26.500 774 Climbing Oakland Center
Mon 14:54:53 38.8117 -121.2606 61° Northeast 266 492 26.900 194 Climbing Oakland Center
Mon 14:55:55 38.8489 -121.1711 62° Northeast 280 518 26.900  Level Oakland Center
Mon 14:56:56 38.8900 -121.0803 60° Northeast 291 539 26.900  Level Oakland Center
Mon 14:57:58 38.9297 -120.9872 61° Northeast 297 550 26.900  Level Oakland Center
Mon 14:59:00 38.9761 -120.8772 61° Northeast 294 544 26.900  Level Oakland Center
Mon 15:00:02 39.0147 -120.7864 61° Northeast 291 539 26.900  Level Oakland Center
Mon 15:01:04 39.0533 -120.6967 61° Northeast 288 533 26.900  Level Oakland Center
Mon 15:02:05 39.0911 -120.6067 62° Northeast 287 531 26.900  Level Oakland Center
Mon 15:03:07 39.1286 -120.5172 62° Northeast 286 529 26.900  Level Oakland Center
Mon 15:04:09 39.1672 -120.4269 61° Northeast 287 531 26.900  Level Oakland Center
Mon 15:05:11 39.2056 -120.3372 61° Northeast 285 528 26.900  Level Oakland Center
Mon 15:06:13 39.2506 -120.2297 62° Northeast 283 525 26.900  Level Oakland Center
Mon 15:07:14 39.2892 -120.1400 61° Northeast 286 529 26.900  Level Oakland Center
Mon 15:08:16 39.3294 -120.0450 61° Northeast 291 539 26.900  Level Oakland Center
Mon 15:09:18 39.3664 -119.9544 62° Northeast 286 529 26.900  Level Oakland Center
Mon 15:10:20 39.4050 -119.8639 61° Northeast 288 533 26.900  Level Oakland Center
Mon 15:11:22 39.4428 -119.7747 61° Northeast 283 525 26.900  Level Oakland Center
Mon 15:12:24 39.4786 -119.6844 63° Northeast 282 523 26.900  Level Oakland Center
Mon 15:13:26 39.5167 -119.5969 61° Northeast 279 517 26.900  Level Oakland Center
Mon 15:14:27 39.5600 -119.4892 62° Northeast 278 515 26.900  Level Oakland Center
Mon 15:15:29 39.5964 -119.3992 62° Northeast 282 523 26.900  Level Oakland Center
Mon 15:16:31 39.6325 -119.3119 62° Northeast 276 512 26.900  Level Oakland Center
Mon 15:17:33 39.6686 -119.2228 62° Northeast 277 513 26.900 48 Level Oakland Center
Mon 15:18:35 39.7053 -119.1325 62° Northeast 279 517 27.000  Climbing Oakland Center
Mon 15:19:37 39.7419 -119.0422 62° Northeast 280 518 26.900 -49 Descending Oakland Center
Mon 15:20:38 39.7792 -118.9514 62° Northeast 282 523 26.900 49 Level Oakland Center
Mon 15:21:40 39.8153 -118.8600 63° Northeast 284 526 27.000 48 Climbing Oakland Center
Mon 15:22:42 39.8583 -118.7503 63° Northeast 282 523 27.000 -48 Level Oakland Center
Mon 15:23:44 39.8950 -118.6594 62° Northeast 283 525 26.900 -48 Descending Oakland Center
Mon 15:24:46 39.9317 -118.5683 62° Northeast 283 525 26.900 48 Level Oakland Center
Mon 15:25:48 39.9681 -118.4750 63° Northeast 286 529 27.000  Climbing Oakland Center
Mon 15:26:50 40.0056 -118.3811 62° Northeast 290 538 26.900 -49 Descending Oakland Center
Mon 15:27:51 40.0428 -118.2875 63° Northeast 290 538 26.900  Level Oakland Center
Mon 15:28:53 40.0786 -118.1931 64° Northeast 291 539 26.900 48 Level Oakland Center
Mon 15:29:55 40.1150 -118.1008 63° Northeast 286 529 27.000  Climbing Oakland Center
Mon 15:30:57 40.1589 -117.9892 63° Northeast 287 531 26.900 -48 Descending Oakland Center
Mon 15:31:59 40.1953 -117.8967 63° Northeast 286 529 26.900  Level Oakland Center
Mon 15:32:50 40.2253 -117.8203 63° Northeast 283 525 26.900  Level Salt Lake Center
Mon 15:33:52 40.2592 -117.7336 63° Northeast 280 518 26.900  Level Salt Lake Center
Mon 15:34:55 40.2983 -117.6322 63° Northeast 280 518 26.900  Level Salt Lake Center
Mon 15:35:57 40.3325 -117.5439 63° Northeast 282 523 26.900  Level Salt Lake Center
Mon 15:36:59 40.3722 -117.4411 63° Northeast 283 525 26.900  Level Salt Lake Center
Mon 15:38:01 40.4064 -117.3536 63° Northeast 283 525 26.900  Level Salt Lake Center
Mon 15:39:03 40.4467 -117.2506 63° Northeast 282 523 26.900  Level Salt Lake Center
Mon 15:40:05 40.4822 -117.1628 62° Northeast 283 525 26.900 48 Level Salt Lake Center
Mon 15:41:07 40.5169 -117.0753 62° Northeast 282 523 27.000  Climbing Salt Lake Center
Mon 15:42:09 40.5578 -116.9725 62° Northeast 281 520 26.900 -48 Descending Salt Lake Center
Mon 15:43:11 40.5919 -116.8836 63° Northeast 282 523 26.900  Level Salt Lake Center
Mon 15:44:13 40.6319 -116.7794 63° Northeast 284 526 26.900  Level Salt Lake Center
Mon 15:45:15 40.6656 -116.6919 63° Northeast 280 518 26.900  Level Salt Lake Center
Mon 15:46:17 40.7003 -116.6028 63° Northeast 283 525 26.900  Level Salt Lake Center
Mon 15:47:19 40.7408 -116.5000 62° Northeast 283 525 26.900  Level Salt Lake Center
Mon 15:48:20 40.7747 -116.4131 63° Northeast 279 517 26.900  Level Salt Lake Center
Mon 15:49:22 40.8142 -116.3103 63° Northeast 279 517 26.900 48 Level Salt Lake Center
Mon 15:50:24 40.8478 -116.2225 63° Northeast 280 518 27.000  Climbing Salt Lake Center
Mon 15:51:26 40.8869 -116.1189 63° Northeast 281 520 26.900 -48 Descending Salt Lake Center
Mon 15:52:28 40.9203 -116.0297 64° Northeast 282 523 26.900 48 Level Salt Lake Center
Mon 15:53:30 40.9600 -115.9281 63° Northeast 279 517 27.000 48 Climbing Salt Lake Center
Mon 15:54:32 40.9925 -115.8397 64° Northeast 279 517 27.000  Level Salt Lake Center
Mon 15:55:34 41.0314 -115.7375 63° Northeast 279 517 27.000 -48 Level Salt Lake Center
Mon 15:56:36 41.0639 -115.6494 64° Northeast 278 515 26.900  Descending Salt Lake Center
Mon 15:57:38 41.0978 -115.5611 63° Northeast 280 518 27.000  Climbing Salt Lake Center
Mon 15:58:40 41.1358 -115.4575 64° Northeast 279 517 26.900  Descending Salt Lake Center
Mon 15:59:41 41.1675 -115.3694 64° Northeast 278 515 27.000  Climbing Salt Lake Center
Mon 16:00:43 41.2075 -115.2656 63° Northeast 281 520 26.900 -48 Descending Salt Lake Center
Mon 16:01:45 41.2394 -115.1783 64° Northeast 278 515 26.900  Level Salt Lake Center
Mon 16:02:48 41.2767 -115.0714 65° Northeast 283 525 26.900  Level Salt Lake Center
Mon 16:03:49 41.3114 -114.9833 62° Northeast 282 523 26.900  Level Salt Lake Center
Mon 16:04:51 41.3503 -114.8789 64° Northeast 282 523 26.900 48 Level Salt Lake Center
Mon 16:05:53 41.3797 -114.7947 65° Northeast 283 525 27.000 49 Climbing Salt Lake Center
Mon 16:06:54 41.4144 -114.7011 64° Northeast 282 523 27.000  Level Salt Lake Center
Mon 16:07:56 41.4550 -114.5881 64° Northeast 282 523 27.000 -48 Level Salt Lake Center
Mon 16:08:58 41.4872 -114.4922 66° East 283 525 26.900  Descending Salt Lake Center
Mon 16:10:00 41.5225 -114.3997 63° Northeast 281 520 27.000 48 Climbing Salt Lake Center
Mon 16:11:02 41.5564 -114.3053 64° Northeast 282 523 27.000 -48 Level Salt Lake Center
Mon 16:12:04 41.5906 -114.2114 64° Northeast 282 523 26.900 -48 Descending Salt Lake Center
Mon 16:13:06 41.6217 -114.1181 66° East 277 513 26.900 48 Level Salt Lake Center
Mon 16:14:08 41.6633 -114.0061 63° Northeast 280 518 27.000  Climbing Salt Lake Center
Mon 16:15:10 41.6944 -113.9128 66° East 277 513 26.900  Descending Salt Lake Center
Mon 16:16:12 41.7278 -113.8181 65° Northeast 279 517 27.000 48 Climbing Salt Lake Center
Mon 16:17:14 41.7614 -113.7233 65° Northeast 281 520 27.000 -48 Level Salt Lake Center
Mon 16:18:16 41.7939 -113.6306 65° Northeast 276 512 26.900  Descending Salt Lake Center
Mon 16:19:17 41.8278 -113.5369 64° Northeast 278 515 27.000 49 Climbing Salt Lake Center
Mon 16:20:19 41.8608 -113.4411 65° Northeast 282 523 27.000  Level Salt Lake Center
Mon 16:21:21 41.9000 -113.3269 65° Northeast 281 520 27.000 -48 Level Salt Lake Center
Mon 16:22:23 41.9328 -113.2328 65° Northeast 281 520 26.900  Descending Salt Lake Center
Mon 16:23:25 41.9653 -113.1381 65° Northeast 279 517 27.000 48 Climbing Salt Lake Center
Mon 16:24:27 41.9972 -113.0439 65° Northeast 279 517 27.000  Level Salt Lake Center
Mon 16:25:29 42.0300 -112.9511 65° Northeast 276 512 27.000  Level Salt Lake Center
Mon 16:26:31 42.0614 -112.8569 66° East 276 512 27.000  Level Salt Lake Center
Mon 16:27:33 42.0992 -112.7456 65° Northeast 273 505 27.000  Level Salt Lake Center
Mon 16:28:35 42.1303 -112.6519 66° East 273 505 27.000  Level Salt Lake Center
Mon 16:29:37 42.1614 -112.5597 66° East 272 504 27.000  Level Salt Lake Center
Mon 16:30:38 42.1942 -112.4650 65° Northeast 278 515 27.000  Level Salt Lake Center
Mon 16:31:40 42.2367 -112.3803 56° Northeast 280 518 27.000  Level Salt Lake Center
Mon 16:32:42 42.2581 -112.2825 74° East 273 505 27.000  Level Salt Lake Center
Mon 16:33:44 42.2892 -112.1883 66° East 275 509 27.000 -48 Level Salt Lake Center
Mon 16:34:46 42.3286 -112.0767 64° Northeast 274 507 26.900 -48 Descending Salt Lake Center
Mon 16:35:48 42.3594 -111.9814 66° East 277 513 26.900 48 Level Salt Lake Center
Mon 16:36:50 42.3922 -111.8889 64° Northeast 275 509 27.000 49 Climbing Salt Lake Center
Mon 16:37:51 42.4239 -111.7958 65° Northeast 274 507 27.000  Level Salt Lake Center
Mon 16:38:53 42.4539 -111.7033 66° East 270 501 27.000  Level Salt Lake Center
Mon 16:39:55 42.4853 -111.6117 65° Northeast 268 496 27.000  Level Salt Lake Center
Mon 16:40:57 42.5172 -111.5189 65° Northeast 272 504 27.000  Level Salt Lake Center
Mon 16:41:59 42.5550 -111.4067 65° Northeast 274 507 27.000 -48 Level Salt Lake Center
Mon 16:43:01 42.5864 -111.3128 66° East 272 504 26.900  Descending Salt Lake Center
Mon 16:44:03 42.6169 -111.2186 66° East 271 502 27.000 49 Climbing Salt Lake Center
Mon 16:45:04 42.6483 -111.1247 66° East 273 505 27.000  Level Salt Lake Center
Mon 16:46:06 42.6792 -111.0319 66° East 271 502 27.000  Level Salt Lake Center
Mon 16:47:08 42.7331 -110.9425 51° Northeast 283 525 27.000  Level Salt Lake Center
Mon 16:48:10 42.7867 -110.8750 43° Northeast 277 513 27.000  Level Salt Lake Center
Mon 16:49:12 42.8492 -110.7922 44° Northeast 279 517 27.000  Level Salt Lake Center
Mon 16:50:14 42.9028 -110.7228 43° Northeast 279 517 27.000  Level Salt Lake Center
Mon 16:51:16 42.9650 -110.6389 45° Northeast 283 525 27.000  Level Salt Lake Center
Mon 16:52:18 43.0194 -110.5678 44° Northeast 283 525 27.000 -48 Level Salt Lake Center
Mon 16:53:20 43.0842 -110.4847 43° Northeast 286 529 26.900  Descending Salt Lake Center
Mon 16:54:22 43.1389 -110.4097 45° Northeast 289 536 27.000 48 Climbing Salt Lake Center
Mon 16:55:24 43.2025 -110.3250 44° Northeast 288 533 27.000  Level Salt Lake Center
Mon 16:56:26 43.2594 -110.2481 45° Northeast 289 536 27.000  Level Salt Lake Center
Mon 16:57:27 43.3139 -110.1747 44° Northeast 288 533 27.000  Level Salt Lake Center
Mon 16:58:29 43.3772 -110.0886 45° Northeast 287 531 27.000  Level Salt Lake Center
Mon 16:59:31 43.4311 -110.0158 44° Northeast 285 528 27.000  Level Salt Lake Center
Mon 17:00:33 43.4928 -109.9325 44° Northeast 280 518 27.000  Level Salt Lake Center
Mon 17:01:35 43.5425 -109.8633 45° Northeast 278 515 27.000  Level Salt Lake Center
Mon 17:02:37 43.6039 -109.7822 44° Northeast 277 513 27.000  Level Salt Lake Center
Mon 17:03:39 43.6575 -109.7092 45° Northeast 281 520 27.000  Level Salt Lake Center
Mon 17:04:40 43.7194 -109.6247 45° Northeast 281 520 27.000  Level Salt Lake Center
Mon 17:05:42 43.7719 -109.5500 46° Northeast 282 523 27.000  Level Salt Lake Center
Mon 17:06:44 43.8347 -109.4669 44° Northeast 286 529 27.000  Level Salt Lake Center
Mon 17:07:46 43.8889 -109.3894 46° Northeast 281 520 27.000 -145 Level Salt Lake Center
Mon 17:08:48 43.9453 -109.3131 44° Northeast 283 525 26.700 -968 Descending Salt Lake Center
Mon 17:09:50 44.0044 -109.2300 45° Northeast 298 552 25.000 -1.742 Descending Salt Lake Center
Mon 17:10:52 44.0642 -109.1461 45° Northeast 305 565 23.100 -2.081 Descending Salt Lake Center
Mon 17:11:54 44.1303 -109.0533 45° Northeast 288 533 20.700 -1.902 Descending Salt Lake Center
Mon 17:12:55 44.1831 -108.9792 45° Northeast 276 512 19.200 -1.463 Descending Salt Lake Center
Mon 17:13:57 44.2367 -108.9050 45° Northeast 271 502 17.700 -1.403 Descending Salt Lake Center
Mon 17:14:59 44.2900 -108.8297 45° Northeast 273 505 16.300 -1.403 Descending Salt Lake Center
Mon 17:16:01 44.3375 -108.7583 47° Northeast 261 483 14.800 -1.452 Descending Salt Lake Center
Mon 17:17:03 44.2997 -108.7550 176° South 226 418 13.300 -1.452 Descending Salt Lake Center
Mon 17:18:05 44.3422 -108.8214 312° West 231 428 11.800 -1.645 Descending Salt Lake Center
Mon 17:19:07 44.4033 -108.8906 321° Northwest 234 433 9.900 -1.839 Descending Salt Lake Center

Login

Don't have an account? Register now (free) for customized features, flight alerts, and more!